createdAt,value
2019-05-21T00:00:43.595Z,77.93
2019-05-21T00:03:17.468Z,77.87
2019-05-21T00:05:49.805Z,78.59
2019-05-21T00:08:22.844Z,78.51
2019-05-21T00:10:55.515Z,78.10
2019-05-21T00:13:27.946Z,77.49
2019-05-21T00:16:01.104Z,77.75
2019-05-21T00:18:33.752Z,77.80
2019-05-21T00:21:06.674Z,78.25
2019-05-21T00:23:39.186Z,78.10
2019-05-21T00:26:12.270Z,78.50
2019-05-21T00:28:42.823Z,78.40
2019-05-21T00:31:50.029Z,78.21
2019-05-21T00:34:57.332Z,78.42
2019-05-21T00:38:06.030Z,78.45
2019-05-21T00:41:13.191Z,78.07
2019-05-21T00:43:58.113Z,78.39
2019-05-21T00:46:31.097Z,78.56
2019-05-21T00:49:03.758Z,78.68
2019-05-21T00:51:36.608Z,78.54
2019-05-21T00:54:09.214Z,78.12
2019-05-21T00:56:42.432Z,77.48
2019-05-21T00:59:13.522Z,77.66
2019-05-21T01:01:46.010Z,77.64
2019-05-21T01:04:22.041Z,77.73
2019-05-21T01:06:54.444Z,76.77
2019-05-21T01:09:27.535Z,77.00
2019-05-21T01:12:00.249Z,76.63
2019-05-21T01:14:32.854Z,76.93
2019-05-21T01:17:05.684Z,77.36
2019-05-21T01:19:38.315Z,77.74
2019-05-21T01:22:11.419Z,77.87
2019-05-21T01:24:44.197Z,77.73
2019-05-21T01:27:17.029Z,77.94
2019-05-21T01:29:49.671Z,77.40
2019-05-21T01:32:22.882Z,77.36
2019-05-21T01:34:54.153Z,77.27
2019-05-21T01:37:27.241Z,77.39
2019-05-21T01:39:58.401Z,77.60
2019-05-21T01:42:31.399Z,77.42
2019-05-21T01:45:03.895Z,77.66
2019-05-21T01:47:36.897Z,77.61
2019-05-21T01:50:09.671Z,77.16
2019-05-21T01:52:42.697Z,76.77
2019-05-21T01:55:15.553Z,77.19
2019-05-21T01:57:48.566Z,76.35
2019-05-21T02:00:21.344Z,76.49
2019-05-21T02:02:54.204Z,77.05
2019-05-21T02:05:33.228Z,77.60
2019-05-21T02:08:01.862Z,77.79
2019-05-21T02:10:33.120Z,77.93
2019-05-21T02:13:06.097Z,78.30
2019-05-21T02:15:38.611Z,78.00
2019-05-21T02:18:11.693Z,78.16
2019-05-21T02:20:44.168Z,78.53
2019-05-21T02:23:16.671Z,78.46
2019-05-21T02:25:49.672Z,78.18
2019-05-21T02:28:22.203Z,78.18
2019-05-21T02:30:56.623Z,79.20
2019-05-21T02:33:29.397Z,78.58
2019-05-21T02:36:01.911Z,78.06
2019-05-21T02:38:34.674Z,78.16
2019-05-21T02:41:07.509Z,78.54
2019-05-21T02:43:40.210Z,78.02
2019-05-21T02:46:13.183Z,78.65
2019-05-21T02:48:46.359Z,78.48
2019-05-21T02:51:19.146Z,77.94
2019-05-21T02:53:52.588Z,77.86
2019-05-21T02:56:25.180Z,78.28
2019-05-21T02:58:57.526Z,79.44
2019-05-21T03:01:49.231Z,79.36
2019-05-21T03:04:21.766Z,79.17
2019-05-21T03:06:56.959Z,78.99
2019-05-21T03:09:29.823Z,78.84
2019-05-21T03:12:02.497Z,78.78
2019-05-21T03:14:35.333Z,78.31
2019-05-21T03:17:08.149Z,77.84
2019-05-21T03:19:40.658Z,77.85
2019-05-21T03:22:13.607Z,77.53
2019-05-21T03:24:46.283Z,78.27
2019-05-21T03:27:19.212Z,77.91
2019-05-21T03:29:51.960Z,77.43
2019-05-21T03:32:24.482Z,77.54
2019-05-21T03:34:57.583Z,77.23
2019-05-21T03:37:30.185Z,77.20
2019-05-21T03:40:03.731Z,77.40
2019-05-21T03:42:36.823Z,77.86
2019-05-21T03:45:09.807Z,77.76
2019-05-21T03:47:42.643Z,77.93
2019-05-21T03:50:15.211Z,78.22
2019-05-21T03:52:48.164Z,77.00
2019-05-21T03:55:20.898Z,76.64
2019-05-21T03:57:53.282Z,76.32
2019-05-21T04:00:26.194Z,75.10
2019-05-21T04:02:58.966Z,74.91
2019-05-21T04:05:31.407Z,75.73
2019-05-21T04:08:04.080Z,75.25
2019-05-21T04:10:36.838Z,74.09
2019-05-21T04:13:10.059Z,73.99
2019-05-21T04:15:57.956Z,73.75
2019-05-21T04:18:36.789Z,72.35
2019-05-21T04:21:09.794Z,71.47
2019-05-21T04:23:42.629Z,70.68
2019-05-21T04:26:15.657Z,72.27
2019-05-21T04:28:48.119Z,71.02
2019-05-21T04:31:21.103Z,70.71
2019-05-21T04:33:53.729Z,68.82
2019-05-21T04:36:26.420Z,67.88
2019-05-21T04:38:59.398Z,67.75
2019-05-21T04:41:31.620Z,67.77
2019-05-21T04:44:04.268Z,66.00
2019-05-21T04:46:36.521Z,65.32
2019-05-21T04:49:09.470Z,60.56
2019-05-21T04:51:42.028Z,62.99
2019-05-21T04:54:14.529Z,61.97
2019-05-21T04:56:46.985Z,60.59
2019-05-21T04:59:19.909Z,61.03
2019-05-21T05:01:52.497Z,61.20
2019-05-21T05:04:24.945Z,61.26
2019-05-21T05:06:57.890Z,58.03
2019-05-21T05:09:30.528Z,58.06
2019-05-21T05:12:03.590Z,56.44
2019-05-21T05:14:36.309Z,57.04
2019-05-21T05:17:09.295Z,55.26
2019-05-21T05:19:41.990Z,55.12
2019-05-21T05:22:14.660Z,54.87
2019-05-21T05:24:48.048Z,55.31
2019-05-21T05:27:20.441Z,54.37
2019-05-21T05:29:53.399Z,53.66
2019-05-21T05:32:26.023Z,53.38
2019-05-21T05:34:58.894Z,52.65
2019-05-21T05:37:43.157Z,54.67
2019-05-21T05:40:06.080Z,53.90
2019-05-21T05:42:38.870Z,55.80
2019-05-21T05:45:12.108Z,57.16
2019-05-21T05:47:44.737Z,57.36
2019-05-21T05:50:19.068Z,56.48
2019-05-21T05:52:52.057Z,58.08
2019-05-21T05:55:24.679Z,57.58
2019-05-21T05:57:57.722Z,55.64
2019-05-21T06:00:30.531Z,55.77
2019-05-21T06:03:03.055Z,52.84
2019-05-21T06:05:35.842Z,54.77
2019-05-21T06:08:08.490Z,52.97
2019-05-21T06:10:41.530Z,51.51
2019-05-21T06:13:14.167Z,52.34
2019-05-21T06:15:46.629Z,50.52
2019-05-21T06:18:19.575Z,50.82
2019-05-21T06:20:52.109Z,51.80
2019-05-21T06:23:24.682Z,50.71
2019-05-21T06:25:57.758Z,53.61
2019-05-21T06:28:28.875Z,51.56
2019-05-21T06:31:01.705Z,48.70
2019-05-21T06:33:34.251Z,48.78
2019-05-21T06:36:06.834Z,52.54
2019-05-21T06:38:39.765Z,47.56
2019-05-21T06:41:12.431Z,46.73
2019-05-21T06:43:45.452Z,47.52
2019-05-21T06:46:17.528Z,45.83
2019-05-21T06:48:50.298Z,46.13
2019-05-21T06:51:23.005Z,45.32
2019-05-21T06:53:55.900Z,45.52
2019-05-21T06:56:28.437Z,45.75
2019-05-21T06:59:01.472Z,43.95
2019-05-21T07:01:35.354Z,45.12
2019-05-21T07:04:08.125Z,43.96
2019-05-21T07:06:40.544Z,43.50
2019-05-21T07:09:13.496Z,46.69
2019-05-21T07:11:44.717Z,45.39
2019-05-21T07:14:18.301Z,44.56
2019-05-21T07:16:51.676Z,45.95
2019-05-21T07:19:24.205Z,43.83
2019-05-21T07:22:11.580Z,45.57
2019-05-21T07:24:31.459Z,43.94
2019-05-21T07:27:04.051Z,42.22
2019-05-21T07:29:36.878Z,41.98
2019-05-21T07:32:09.516Z,42.59
2019-05-21T07:34:42.247Z,41.75
2019-05-21T07:37:15.006Z,43.06
2019-05-21T07:39:47.361Z,42.69
2019-05-21T07:42:19.894Z,43.84
2019-05-21T07:44:52.749Z,41.41
2019-05-21T07:47:25.501Z,42.65
2019-05-21T07:49:58.474Z,41.27
2019-05-21T07:52:31.281Z,41.90
2019-05-21T07:55:03.659Z,41.19
2019-05-21T07:57:36.072Z,40.46
2019-05-21T08:00:09.797Z,42.39
2019-05-21T08:02:42.731Z,41.45
2019-05-21T08:05:15.767Z,40.62
2019-05-21T08:07:46.898Z,40.55
2019-05-21T08:10:19.525Z,42.26
2019-05-21T08:12:52.207Z,40.83
2019-05-21T08:15:24.834Z,45.13
2019-05-21T08:17:56.884Z,41.72
2019-05-21T08:20:29.477Z,38.52
2019-05-21T08:23:02.402Z,39.34
2019-05-21T08:25:33.572Z,40.98
2019-05-21T08:28:06.441Z,36.09
2019-05-21T08:30:38.904Z,37.26
2019-05-21T08:33:11.430Z,36.52
2019-05-21T08:35:44.126Z,37.13
2019-05-21T08:38:16.325Z,38.10
2019-05-21T08:40:48.789Z,36.99
2019-05-21T08:43:22.231Z,37.38
2019-05-21T08:45:54.779Z,37.08
2019-05-21T08:48:27.659Z,36.74
2019-05-21T08:51:00.261Z,38.25
2019-05-21T08:53:32.828Z,38.79
2019-05-21T08:56:05.604Z,40.03
2019-05-21T08:58:38.273Z,41.20
2019-05-21T09:01:11.154Z,39.64
2019-05-21T09:03:43.811Z,39.96
2019-05-21T09:06:16.280Z,40.05
2019-05-21T09:08:49.756Z,40.68
2019-05-21T09:11:22.653Z,39.15
2019-05-21T09:13:55.186Z,41.72
2019-05-21T09:16:28.083Z,42.42
2019-05-21T09:19:01.010Z,41.64
2019-05-21T09:21:33.573Z,42.82
2019-05-21T09:24:06.366Z,46.22
2019-05-21T09:26:39.122Z,41.99
2019-05-21T09:29:12.095Z,41.57
2019-05-21T09:31:44.682Z,42.54
2019-05-21T09:34:17.314Z,40.50
2019-05-21T09:36:50.140Z,38.99
2019-05-21T09:39:22.830Z,38.51
2019-05-21T09:41:55.034Z,39.01
2019-05-21T09:44:27.899Z,37.14
2019-05-21T09:47:00.757Z,37.91
2019-05-21T09:49:33.715Z,37.53
2019-05-21T09:52:06.366Z,38.91
2019-05-21T09:54:40.288Z,39.27
2019-05-21T09:57:15.016Z,39.45
2019-05-21T10:00:02.137Z,37.43
2019-05-21T10:02:36.269Z,40.91
2019-05-21T10:05:08.976Z,41.52
2019-05-21T10:07:41.934Z,40.42
2019-05-21T10:10:15.023Z,37.19
2019-05-21T10:12:47.926Z,41.86
2019-05-21T10:15:20.040Z,42.76
2019-05-21T10:17:52.522Z,44.58
2019-05-21T10:20:25.536Z,45.35
2019-05-21T10:22:56.560Z,46.11
2019-05-21T10:25:29.561Z,47.82
2019-05-21T10:28:00.733Z,48.35
2019-05-21T10:30:33.003Z,48.38
2019-05-21T10:33:05.982Z,48.42
2019-05-21T10:35:38.520Z,48.74
2019-05-21T10:38:11.613Z,49.04
2019-05-21T10:40:42.726Z,50.50
2019-05-21T10:43:15.442Z,51.36
2019-05-21T10:45:48.301Z,52.03
2019-05-21T10:48:20.917Z,50.67
2019-05-21T10:50:53.873Z,50.20
2019-05-21T10:53:26.519Z,49.89
2019-05-21T10:55:59.065Z,51.15
2019-05-21T10:58:31.930Z,53.07
2019-05-21T11:01:13.400Z,53.35
2019-05-21T11:04:04.865Z,55.85
2019-05-21T11:06:38.021Z,54.87
2019-05-21T11:09:17.139Z,58.84
2019-05-21T11:11:51.967Z,61.01
2019-05-21T11:14:24.066Z,58.79
2019-05-21T11:16:56.734Z,60.40
2019-05-21T11:19:29.599Z,61.07
2019-05-21T11:22:02.390Z,59.81
2019-05-21T11:24:35.102Z,59.65
2019-05-21T11:27:07.690Z,61.48
2019-05-21T11:29:40.361Z,59.84
2019-05-21T11:32:13.776Z,61.70
2019-05-21T11:34:49.798Z,63.88
2019-05-21T11:37:20.677Z,66.36
2019-05-21T11:39:53.314Z,66.29
2019-05-21T11:42:26.073Z,66.60
2019-05-21T11:44:58.660Z,66.43
2019-05-21T11:47:31.727Z,66.56
2019-05-21T11:50:04.603Z,61.07
2019-05-21T11:52:37.146Z,61.39
2019-05-21T11:55:10.148Z,58.55
2019-05-21T11:57:42.135Z,59.82
2019-05-21T12:00:15.465Z,59.80
2019-05-21T12:02:48.214Z,59.55
2019-05-21T12:05:20.650Z,58.13
2019-05-21T12:07:53.075Z,57.54
2019-05-21T12:10:25.947Z,60.63
2019-05-21T12:12:57.975Z,55.31
2019-05-21T12:15:30.549Z,59.91
2019-05-21T12:18:03.498Z,56.47
2019-05-21T12:20:37.128Z,57.48
2019-05-21T12:23:08.490Z,52.57
2019-05-21T12:25:41.422Z,53.55
2019-05-21T12:28:13.825Z,55.18
2019-05-21T12:30:46.350Z,58.59
2019-05-21T12:33:19.467Z,61.32
2019-05-21T12:35:50.661Z,57.67
2019-05-21T12:38:23.103Z,60.75
2019-05-21T12:40:56.030Z,58.98
2019-05-21T12:43:28.721Z,58.27
2019-05-21T12:46:01.599Z,57.77
2019-05-21T12:48:34.358Z,59.36
2019-05-21T12:51:07.331Z,59.46
2019-05-21T12:53:39.962Z,57.81
2019-05-21T12:56:13.500Z,58.80
2019-05-21T12:58:45.863Z,60.60
2019-05-21T13:01:18.935Z,60.69
2019-05-21T13:03:50.280Z,53.87
2019-05-21T13:06:23.326Z,51.94
2019-05-21T13:08:55.844Z,46.30
2019-05-21T13:11:28.738Z,41.53
2019-05-21T13:14:01.214Z,40.76
2019-05-21T13:16:37.126Z,41.11
2019-05-21T13:19:11.307Z,37.81
2019-05-21T13:21:43.841Z,37.70
2019-05-21T13:24:16.426Z,36.32
2019-05-21T13:26:49.153Z,32.88
2019-05-21T13:29:23.113Z,34.15
2019-05-21T13:31:55.706Z,31.37
2019-05-21T13:34:28.565Z,32.23
2019-05-21T13:36:59.689Z,30.21
2019-05-21T13:39:48.381Z,32.84
2019-05-21T13:42:06.722Z,37.27
2019-05-21T13:44:39.219Z,38.60
2019-05-21T13:47:12.111Z,39.83
2019-05-21T13:49:43.361Z,41.11
2019-05-21T13:52:16.126Z,43.04
2019-05-21T13:54:48.832Z,46.96
2019-05-21T13:57:21.497Z,52.12
2019-05-21T13:59:54.356Z,60.45
2019-05-21T14:02:27.174Z,61.37
2019-05-21T14:05:00.135Z,66.16
2019-05-21T14:07:31.515Z,65.23
2019-05-21T14:10:16.117Z,66.66
2019-05-21T14:12:39.057Z,66.88
2019-05-21T14:15:13.316Z,66.00
2019-05-21T14:17:46.171Z,59.00
2019-05-21T14:20:18.627Z,62.79
2019-05-21T14:22:51.657Z,51.71
2019-05-21T14:25:22.759Z,49.60
2019-05-21T14:27:55.098Z,48.28
2019-05-21T14:30:28.166Z,45.98
2019-05-21T14:33:00.812Z,45.07
2019-05-21T14:35:33.865Z,41.68
2019-05-21T14:38:05.010Z,41.77
2019-05-21T14:40:38.439Z,44.73
2019-05-21T14:43:11.529Z,46.47
2019-05-21T14:45:44.214Z,47.22
2019-05-21T14:48:16.832Z,46.63
2019-05-21T14:50:49.624Z,45.53
2019-05-21T14:53:22.186Z,44.66
2019-05-21T14:55:55.467Z,46.14
2019-05-21T14:58:29.028Z,47.99
2019-05-21T15:01:05.130Z,50.92
2019-05-21T15:03:37.563Z,49.76
2019-05-21T15:06:10.294Z,51.66
2019-05-21T15:08:43.302Z,49.53
2019-05-21T15:11:17.711Z,52.64
2019-05-21T15:13:50.290Z,53.68
2019-05-21T15:16:23.338Z,54.66
2019-05-21T15:18:54.346Z,53.68
2019-05-21T15:21:34.782Z,55.50
2019-05-21T15:24:07.655Z,55.08
2019-05-21T15:26:40.408Z,55.37
2019-05-21T15:29:13.280Z,57.11
2019-05-21T15:31:45.831Z,54.49
2019-05-21T15:34:21.744Z,52.82
2019-05-21T15:36:55.673Z,54.09
2019-05-21T15:39:28.082Z,53.81
2019-05-21T15:42:01.086Z,54.70
2019-05-21T15:44:32.409Z,54.20
2019-05-21T15:47:04.721Z,54.91
2019-05-21T15:49:37.262Z,53.45
2019-05-21T15:52:10.174Z,53.56
2019-05-21T15:54:42.747Z,53.53
2019-05-21T15:57:15.705Z,54.00
2019-05-21T15:59:48.270Z,53.08
2019-05-21T16:02:20.824Z,54.25
2019-05-21T16:04:53.469Z,53.63
2019-05-21T16:07:26.158Z,49.37
2019-05-21T16:10:00.854Z,50.36
2019-05-21T16:12:33.772Z,50.52
2019-05-21T16:15:06.542Z,50.34
2019-05-21T16:17:39.363Z,50.34
2019-05-21T16:20:12.421Z,52.41
2019-05-21T16:22:45.224Z,48.99
2019-05-21T16:25:17.931Z,48.58
2019-05-21T16:27:50.837Z,49.92
2019-05-21T16:30:23.321Z,48.68
2019-05-21T16:32:56.413Z,49.71
2019-05-21T16:35:27.659Z,50.58
2019-05-21T16:38:00.135Z,49.43
2019-05-21T16:40:32.975Z,49.21
2019-05-21T16:43:05.493Z,50.55
2019-05-21T16:45:39.099Z,51.41
2019-05-21T16:48:12.074Z,49.23
2019-05-21T16:50:44.663Z,51.35
2019-05-21T16:53:16.623Z,51.38
2019-05-21T16:55:48.973Z,50.46
2019-05-21T16:58:22.020Z,48.97
2019-05-21T17:00:54.518Z,49.66
2019-05-21T17:03:26.992Z,48.71
2019-05-21T17:05:59.832Z,48.88
2019-05-21T17:08:32.626Z,48.75
2019-05-21T17:11:05.103Z,49.27
2019-05-21T17:13:38.021Z,49.47
2019-05-21T17:16:10.660Z,50.29
2019-05-21T17:18:43.175Z,51.11
2019-05-21T17:21:16.187Z,51.01
2019-05-21T17:23:49.633Z,51.02
2019-05-21T17:26:25.242Z,51.06
2019-05-21T17:28:57.757Z,50.40
2019-05-21T17:31:30.719Z,50.36
2019-05-21T17:34:03.349Z,50.99
2019-05-21T17:36:36.533Z,51.12
2019-05-21T17:39:09.380Z,52.53
2019-05-21T17:41:42.189Z,54.25
2019-05-21T17:44:14.828Z,53.72
2019-05-21T17:46:47.607Z,54.27
2019-05-21T17:49:20.487Z,54.27
2019-05-21T17:51:53.536Z,55.52
2019-05-21T17:54:24.777Z,55.73
2019-05-21T17:56:57.239Z,55.40
2019-05-21T17:59:30.213Z,56.13
2019-05-21T18:02:03.580Z,55.97
2019-05-21T18:04:36.313Z,56.98
2019-05-21T18:07:10.773Z,59.32
2019-05-21T18:09:43.523Z,60.47
2019-05-21T18:12:31.071Z,60.61
2019-05-21T18:14:53.041Z,61.20
2019-05-21T18:17:27.203Z,59.46
2019-05-21T18:20:02.017Z,60.47
2019-05-21T18:22:35.696Z,59.87
2019-05-21T18:25:09.393Z,60.07
2019-05-21T18:27:42.356Z,59.04
2019-05-21T18:30:15.491Z,58.71
2019-05-21T18:32:49.394Z,58.70
2019-05-21T18:35:22.101Z,58.27
2019-05-21T18:37:55.378Z,59.05
2019-05-21T18:40:28.223Z,57.98
2019-05-21T18:43:01.228Z,59.50
2019-05-21T18:45:33.991Z,57.50
2019-05-21T18:48:07.101Z,57.55
2019-05-21T18:50:39.307Z,57.47
2019-05-21T18:53:11.998Z,57.75
2019-05-21T18:55:44.985Z,59.79
2019-05-21T18:58:17.939Z,60.28
2019-05-21T19:00:50.820Z,61.02
2019-05-21T19:03:26.543Z,61.98
2019-05-21T19:05:58.147Z,62.97
2019-05-21T19:08:29.512Z,62.39
2019-05-21T19:11:02.048Z,61.97
2019-05-21T19:13:34.902Z,62.08
2019-05-21T19:16:07.617Z,62.74
2019-05-21T19:18:40.293Z,63.68
2019-05-21T19:21:12.960Z,63.94
2019-05-21T19:23:45.488Z,64.26
2019-05-21T19:26:18.348Z,63.30
2019-05-21T19:28:50.937Z,64.58
2019-05-21T19:31:23.554Z,62.89
2019-05-21T19:33:56.411Z,62.03
2019-05-21T19:36:29.176Z,63.30
2019-05-21T19:39:02.155Z,63.83
2019-05-21T19:41:36.505Z,64.68
2019-05-21T19:44:09.158Z,65.67
2019-05-21T19:46:42.071Z,64.70
2019-05-21T19:49:14.690Z,65.00
2019-05-21T19:51:48.235Z,64.82
2019-05-21T19:54:21.122Z,64.56
2019-05-21T19:56:55.248Z,64.08
2019-05-21T19:59:27.767Z,65.33
2019-05-21T20:01:59.719Z,63.57
2019-05-21T20:04:33.534Z,63.99
2019-05-21T20:07:09.797Z,64.33
2019-05-21T20:09:45.563Z,64.71
2019-05-21T20:12:18.280Z,64.13
2019-05-21T20:14:51.445Z,65.26
2019-05-21T20:17:24.455Z,65.90
2019-05-21T20:19:56.826Z,65.38
2019-05-21T20:22:30.661Z,65.79
2019-05-21T20:25:04.893Z,65.96
2019-05-21T20:27:37.349Z,66.60
2019-05-21T20:30:13.329Z,66.22
2019-05-21T20:32:46.728Z,65.25
2019-05-21T20:35:21.297Z,65.12
2019-05-21T20:37:55.198Z,66.28
2019-05-21T20:40:27.942Z,65.81
2019-05-21T20:43:00.893Z,65.65
2019-05-21T20:45:33.404Z,66.28
2019-05-21T20:48:07.375Z,65.65
2019-05-21T20:50:41.641Z,66.64
2019-05-21T20:53:15.140Z,67.15
2019-05-21T20:55:48.343Z,67.80
2019-05-21T20:58:20.015Z,68.54
2019-05-21T21:00:54.326Z,67.71
2019-05-21T21:03:30.785Z,69.09
2019-05-21T21:06:04.459Z,68.65
2019-05-21T21:08:37.931Z,68.93
2019-05-21T21:11:11.554Z,67.71
2019-05-21T21:13:44.822Z,68.39
2019-05-21T21:16:18.052Z,68.03
2019-05-21T21:18:50.834Z,68.96
2019-05-21T21:21:23.477Z,68.18
2019-05-21T21:23:56.862Z,69.06
2019-05-21T21:26:31.310Z,68.54
2019-05-21T21:29:04.099Z,68.92
2019-05-21T21:31:37.077Z,69.29
2019-05-21T21:34:09.708Z,69.90
2019-05-21T21:36:42.164Z,69.91
2019-05-21T21:39:15.779Z,69.47
2019-05-21T21:41:49.320Z,70.11
2019-05-21T21:44:33.604Z,69.54
2019-05-21T21:46:57.579Z,70.11
2019-05-21T21:49:30.826Z,70.43
2019-05-21T21:52:01.984Z,71.74
2019-05-21T21:54:34.977Z,71.81
2019-05-21T21:57:07.794Z,71.96
2019-05-21T21:59:40.526Z,71.68
2019-05-21T22:02:27.678Z,71.40
2019-05-21T22:05:01.984Z,71.63
2019-05-21T22:07:35.951Z,70.99
2019-05-21T22:10:09.906Z,70.16
2019-05-21T22:12:43.847Z,69.05
2019-05-21T22:15:16.759Z,68.56
2019-05-21T22:17:49.928Z,68.86
2019-05-21T22:20:23.102Z,68.53
2019-05-21T22:22:55.111Z,68.74
2019-05-21T22:25:28.872Z,69.21
2019-05-21T22:28:01.771Z,68.95
2019-05-21T22:30:35.131Z,69.61
2019-05-21T22:33:08.936Z,69.40
2019-05-21T22:35:41.925Z,68.92
2019-05-21T22:38:14.754Z,70.09
2019-05-21T22:40:47.638Z,69.85
2019-05-21T22:43:21.232Z,69.14
2019-05-21T22:45:54.062Z,69.67
2019-05-21T22:48:26.939Z,69.60
2019-05-21T22:50:59.494Z,69.82
2019-05-21T22:53:32.456Z,69.76
2019-05-21T22:56:04.995Z,70.23
2019-05-21T22:58:38.093Z,70.66
2019-05-21T23:01:12.032Z,70.72
2019-05-21T23:03:44.919Z,70.55
2019-05-21T23:06:17.425Z,70.02
2019-05-21T23:08:50.129Z,71.24
2019-05-21T23:11:23.389Z,70.63
2019-05-21T23:13:54.332Z,71.14
2019-05-21T23:16:27.474Z,71.52
2019-05-21T23:19:13.340Z,71.24
2019-05-21T23:21:47.828Z,71.12
2019-05-21T23:24:22.261Z,71.27
2019-05-21T23:26:55.746Z,71.12
2019-05-21T23:29:28.561Z,69.96
2019-05-21T23:32:01.475Z,70.97
2019-05-21T23:34:35.081Z,70.51
2019-05-21T23:37:10.713Z,70.50
2019-05-21T23:39:44.959Z,70.96
2019-05-21T23:42:29.000Z,71.15
2019-05-21T23:44:53.399Z,71.88
2019-05-21T23:47:24.992Z,71.76
2019-05-21T23:49:58.042Z,71.59
2019-05-21T23:52:31.360Z,71.37
2019-05-21T23:55:04.017Z,71.37
2019-05-21T23:57:38.083Z,71.56
